createdAt,value
2018-07-09T00:00:28.507Z,26.32
2018-07-09T00:02:32.326Z,26.21
2018-07-09T00:04:35.811Z,26.36
2018-07-09T00:06:39.643Z,26.34
2018-07-09T00:08:43.600Z,26.26
2018-07-09T00:10:58.541Z,26.33
2018-07-09T00:13:02.365Z,26.16
2018-07-09T00:15:06.597Z,26.30
2018-07-09T00:17:13.249Z,26.38
2018-07-09T00:19:18.915Z,26.38
2018-07-09T00:21:25.319Z,26.41
2018-07-09T00:23:28.867Z,26.40
2018-07-09T00:25:32.271Z,26.31
2018-07-09T00:27:36.468Z,26.26
2018-07-09T00:29:40.228Z,26.09
2018-07-09T00:31:43.864Z,26.21
2018-07-09T00:33:47.678Z,26.15
2018-07-09T00:35:51.243Z,25.97
2018-07-09T00:37:54.719Z,25.90
2018-07-09T00:39:58.907Z,26.01
2018-07-09T00:42:02.935Z,26.09
2018-07-09T00:44:06.687Z,26.17
2018-07-09T00:46:14.994Z,25.80
2018-07-09T00:48:22.942Z,25.13
2018-07-09T00:50:26.619Z,25.18
2018-07-09T00:52:30.522Z,25.59
2018-07-09T00:54:34.133Z,25.58
2018-07-09T00:56:37.635Z,25.77
2018-07-09T00:58:41.551Z,26.05
2018-07-09T01:00:45.032Z,25.95
2018-07-09T01:02:48.647Z,26.06
2018-07-09T01:04:52.147Z,25.73
2018-07-09T01:06:55.848Z,25.74
2018-07-09T01:08:59.337Z,26.02
2018-07-09T01:11:16.787Z,26.22
2018-07-09T01:13:44.952Z,26.08
2018-07-09T01:15:48.352Z,25.40
2018-07-09T01:17:52.052Z,25.25
2018-07-09T01:19:55.835Z,25.30
2018-07-09T01:21:59.663Z,25.32
2018-07-09T01:24:03.751Z,25.33
2018-07-09T01:26:12.316Z,25.28
2018-07-09T01:28:18.186Z,25.14
2018-07-09T01:30:22.420Z,25.10
2018-07-09T01:32:26.032Z,24.87
2018-07-09T01:34:29.561Z,25.18
2018-07-09T01:36:33.460Z,24.94
2018-07-09T01:38:37.209Z,24.96
2018-07-09T01:40:41.359Z,24.84
2018-07-09T01:42:45.445Z,24.69
2018-07-09T01:44:49.218Z,25.27
2018-07-09T01:46:52.925Z,25.06
2018-07-09T01:48:57.134Z,25.20
2018-07-09T01:51:00.666Z,24.78
2018-07-09T01:53:05.084Z,24.82
2018-07-09T01:55:13.377Z,25.05
2018-07-09T01:57:19.908Z,25.30
2018-07-09T01:59:24.006Z,25.18
2018-07-09T02:01:28.054Z,25.24
2018-07-09T02:03:31.870Z,25.36
2018-07-09T02:05:35.471Z,24.96
2018-07-09T02:07:39.642Z,25.23
2018-07-09T02:09:43.393Z,25.07
2018-07-09T02:11:46.922Z,25.26
2018-07-09T02:13:51.224Z,25.45
2018-07-09T02:15:54.797Z,25.35
2018-07-09T02:17:58.333Z,25.67
2018-07-09T02:20:01.943Z,25.43
2018-07-09T02:22:07.916Z,25.17
2018-07-09T02:24:15.263Z,25.13
2018-07-09T02:26:23.001Z,25.26
2018-07-09T02:28:26.564Z,25.26
2018-07-09T02:30:30.133Z,24.95
2018-07-09T02:32:33.589Z,24.77
2018-07-09T02:34:37.399Z,24.93
2018-07-09T02:36:41.308Z,24.93
2018-07-09T02:38:46.209Z,24.74
2018-07-09T02:40:52.157Z,24.81
2018-07-09T02:42:57.693Z,24.81
2018-07-09T02:45:03.411Z,24.51
2018-07-09T02:47:09.574Z,24.75
2018-07-09T02:49:15.056Z,24.84
2018-07-09T02:51:19.996Z,24.85
2018-07-09T02:53:24.667Z,24.51
2018-07-09T02:55:28.350Z,24.42
2018-07-09T02:57:31.975Z,24.59
2018-07-09T02:59:35.414Z,25.05
2018-07-09T03:01:38.794Z,24.96
2018-07-09T03:03:42.541Z,24.68
2018-07-09T03:05:46.649Z,24.44
2018-07-09T03:07:50.347Z,24.26
2018-07-09T03:09:53.859Z,24.32
2018-07-09T03:11:57.621Z,24.59
2018-07-09T03:14:01.095Z,24.76
2018-07-09T03:16:04.771Z,24.78
2018-07-09T03:18:12.757Z,24.82
2018-07-09T03:20:17.503Z,24.93
2018-07-09T03:22:24.387Z,24.96
2018-07-09T03:24:28.869Z,24.82
2018-07-09T03:26:32.335Z,24.58
2018-07-09T03:28:37.656Z,24.85
2018-07-09T03:30:41.409Z,25.12
2018-07-09T03:32:46.009Z,24.29
2018-07-09T03:34:49.682Z,24.20
2018-07-09T03:36:54.107Z,24.24
2018-07-09T03:38:57.968Z,24.51
2018-07-09T03:41:01.972Z,24.47
2018-07-09T03:43:07.056Z,24.63
2018-07-09T03:45:13.699Z,24.92
2018-07-09T03:47:22.297Z,24.83
2018-07-09T03:49:25.664Z,24.31
2018-07-09T03:51:29.551Z,24.46
2018-07-09T03:53:32.937Z,24.49
2018-07-09T03:55:36.608Z,24.27
2018-07-09T03:57:40.579Z,24.65
2018-07-09T03:59:44.261Z,24.88
2018-07-09T04:01:47.924Z,24.87
2018-07-09T04:03:51.479Z,24.94
2018-07-09T04:05:55.047Z,24.56
2018-07-09T04:07:58.745Z,24.50
2018-07-09T04:10:02.594Z,24.63
2018-07-09T04:12:07.475Z,24.56
2018-07-09T04:14:14.941Z,24.83
2018-07-09T04:16:21.416Z,24.71
2018-07-09T04:18:26.329Z,24.65
2018-07-09T04:20:30.631Z,24.58
2018-07-09T04:22:34.119Z,24.58
2018-07-09T04:24:37.604Z,24.65
2018-07-09T04:26:41.191Z,24.82
2018-07-09T04:28:44.626Z,25.09
2018-07-09T04:30:48.938Z,25.32
2018-07-09T04:32:52.376Z,25.43
2018-07-09T04:34:56.143Z,25.46
2018-07-09T04:37:00.112Z,25.22
2018-07-09T04:39:06.200Z,25.38
2018-07-09T04:41:13.231Z,25.53
2018-07-09T04:43:20.316Z,25.61
2018-07-09T04:45:25.156Z,25.65
2018-07-09T04:47:28.808Z,25.57
2018-07-09T04:49:32.792Z,25.53
2018-07-09T04:51:36.175Z,25.35
2018-07-09T04:53:39.775Z,25.42
2018-07-09T04:55:43.279Z,25.59
2018-07-09T04:57:47.527Z,25.61
2018-07-09T04:59:51.474Z,25.59
2018-07-09T05:01:55.382Z,25.43
2018-07-09T05:03:59.217Z,25.34
2018-07-09T05:06:02.716Z,25.43
2018-07-09T05:08:06.666Z,25.69
2018-07-09T05:10:13.889Z,25.76
2018-07-09T05:12:20.065Z,25.79
2018-07-09T05:14:24.362Z,25.80
2018-07-09T05:16:27.755Z,25.61
2018-07-09T05:18:31.252Z,25.54
2018-07-09T05:20:35.126Z,25.54
2018-07-09T05:22:39.170Z,25.62
2018-07-09T05:24:42.797Z,25.70
2018-07-09T05:26:47.005Z,25.76
2018-07-09T05:28:50.973Z,25.75
2018-07-09T05:30:55.211Z,25.52
2018-07-09T05:32:59.644Z,25.54
2018-07-09T05:35:03.210Z,25.66
2018-07-09T05:37:10.272Z,25.80
2018-07-09T05:39:16.990Z,25.68
2018-07-09T05:41:23.675Z,25.69
2018-07-09T05:43:27.442Z,25.82
2018-07-09T05:45:31.730Z,25.50
2018-07-09T05:47:36.745Z,25.58
2018-07-09T05:49:40.849Z,25.34
2018-07-09T05:51:45.344Z,25.15
2018-07-09T05:53:49.486Z,24.55
2018-07-09T05:55:53.617Z,24.94
2018-07-09T05:57:57.674Z,25.48
2018-07-09T06:00:01.092Z,25.15
2018-07-09T06:02:06.087Z,25.50
2018-07-09T06:04:13.323Z,25.74
2018-07-09T06:06:18.520Z,25.70
2018-07-09T06:08:28.718Z,25.72
2018-07-09T06:10:32.919Z,25.43
2018-07-09T06:12:36.780Z,25.42
2018-07-09T06:14:40.551Z,25.48
2018-07-09T06:16:44.620Z,25.64
2018-07-09T06:18:48.358Z,25.35
2018-07-09T06:20:52.073Z,25.66
2018-07-09T06:22:55.798Z,25.84
2018-07-09T06:24:59.694Z,25.90
2018-07-09T06:27:03.663Z,25.89
2018-07-09T06:29:11.354Z,25.96
2018-07-09T06:31:22.357Z,25.76
2018-07-09T06:33:26.156Z,25.54
2018-07-09T06:35:30.244Z,25.64
2018-07-09T06:37:33.840Z,25.50
2018-07-09T06:39:37.510Z,25.75
2018-07-09T06:41:41.043Z,25.73
2018-07-09T06:43:45.162Z,25.89
2018-07-09T06:45:48.872Z,25.82
2018-07-09T06:47:53.727Z,25.84
2018-07-09T06:49:57.617Z,25.93
2018-07-09T06:52:01.719Z,25.99
2018-07-09T06:54:06.130Z,25.67
2018-07-09T06:56:13.953Z,25.27
2018-07-09T06:58:19.834Z,25.43
2018-07-09T07:00:27.278Z,25.75
2018-07-09T07:02:31.020Z,25.83
2018-07-09T07:04:34.614Z,25.67
2018-07-09T07:06:38.313Z,25.28
2018-07-09T07:08:42.243Z,25.35
2018-07-09T07:10:46.235Z,25.51
2018-07-09T07:12:50.909Z,25.62
2018-07-09T07:14:54.787Z,25.39
2018-07-09T07:16:58.567Z,25.73
2018-07-09T07:19:03.373Z,25.84
2018-07-09T07:21:10.581Z,25.84
2018-07-09T07:23:15.932Z,25.78
2018-07-09T07:25:22.104Z,25.74
2018-07-09T07:27:25.746Z,25.36
2018-07-09T07:29:29.406Z,25.69
2018-07-09T07:31:33.954Z,25.95
2018-07-09T07:33:37.545Z,25.65
2018-07-09T07:35:40.924Z,25.72
2018-07-09T07:37:44.740Z,25.60
2018-07-09T07:39:48.192Z,25.72
2018-07-09T07:41:51.670Z,25.58
2018-07-09T07:43:55.697Z,25.84
2018-07-09T07:46:00.532Z,25.87
2018-07-09T07:48:05.000Z,26.02
2018-07-09T07:50:13.456Z,26.21
2018-07-09T07:52:18.398Z,25.92
2018-07-09T07:54:25.530Z,25.85
2018-07-09T07:56:29.604Z,26.03
2018-07-09T07:58:34.741Z,25.96
2018-07-09T08:00:39.977Z,26.24
2018-07-09T08:02:46.388Z,26.33
2018-07-09T08:04:50.776Z,26.33
2018-07-09T08:06:55.163Z,26.08
2018-07-09T08:08:59.493Z,26.18
2018-07-09T08:11:11.068Z,25.87
2018-07-09T08:13:27.982Z,25.77
2018-07-09T08:15:20.587Z,25.76
2018-07-09T08:17:24.569Z,25.66
2018-07-09T08:19:28.320Z,25.87
2018-07-09T08:21:32.407Z,25.79
2018-07-09T08:23:35.970Z,25.71
2018-07-09T08:25:40.029Z,25.88
2018-07-09T08:27:44.685Z,25.87
2018-07-09T08:29:49.801Z,25.68
2018-07-09T08:31:53.326Z,25.57
2018-07-09T08:33:57.478Z,25.72
2018-07-09T08:36:01.320Z,25.81
2018-07-09T08:38:07.066Z,25.69
2018-07-09T08:40:13.916Z,25.93
2018-07-09T08:42:20.475Z,25.90
2018-07-09T08:44:26.476Z,25.97
2018-07-09T08:46:30.205Z,26.04
2018-07-09T08:48:33.783Z,26.20
2018-07-09T08:50:41.099Z,26.32
2018-07-09T08:52:50.506Z,26.17
2018-07-09T08:54:57.049Z,25.97
2018-07-09T08:57:01.221Z,26.22
2018-07-09T08:59:10.888Z,26.27
2018-07-09T09:01:16.928Z,26.14
2018-07-09T09:03:22.380Z,26.25
2018-07-09T09:05:26.299Z,25.83
2018-07-09T09:07:29.857Z,26.05
2018-07-09T09:09:33.652Z,26.26
2018-07-09T09:11:37.921Z,26.40
2018-07-09T09:13:41.792Z,26.40
2018-07-09T09:15:45.413Z,26.46
2018-07-09T09:17:48.923Z,26.37
2018-07-09T09:19:52.459Z,26.14
2018-07-09T09:21:55.912Z,26.30
2018-07-09T09:24:00.817Z,26.22
2018-07-09T09:26:05.946Z,26.39
2018-07-09T09:28:13.703Z,26.24
2018-07-09T09:30:20.794Z,26.36
2018-07-09T09:32:25.161Z,26.32
2018-07-09T09:34:28.611Z,26.21
2018-07-09T09:36:32.471Z,26.41
2018-07-09T09:38:36.063Z,26.50
2018-07-09T09:40:39.677Z,26.44
2018-07-09T09:42:45.062Z,26.23
2018-07-09T09:44:48.975Z,26.08
2018-07-09T09:46:52.471Z,26.09
2018-07-09T09:48:56.740Z,26.04
2018-07-09T09:51:00.265Z,25.85
2018-07-09T09:55:14.862Z,26.37
2018-07-09T09:57:20.283Z,26.50
2018-07-09T09:59:25.892Z,26.28
2018-07-09T10:01:30.030Z,26.30
2018-07-09T10:03:33.874Z,26.36
2018-07-09T10:05:37.489Z,26.44
2018-07-09T10:09:07.042Z,26.32
2018-07-09T10:11:13.815Z,26.33
2018-07-09T10:13:23.492Z,26.46
2018-07-09T10:15:27.113Z,26.43
2018-07-09T10:17:30.808Z,26.39
2018-07-09T10:19:34.628Z,26.54
2018-07-09T10:21:38.393Z,26.60
2018-07-09T10:23:41.932Z,26.52
2018-07-09T10:25:45.665Z,26.46
2018-07-09T10:27:49.293Z,26.50
2018-07-09T10:29:52.917Z,26.51
2018-07-09T10:31:56.760Z,26.46
2018-07-09T10:34:00.232Z,26.44
2018-07-09T10:36:04.202Z,26.30
2018-07-09T10:38:11.281Z,26.40
2018-07-09T10:40:17.434Z,26.30
2018-07-09T10:42:23.039Z,26.55
2018-07-09T10:44:26.835Z,26.64
2018-07-09T10:46:30.884Z,26.69
2018-07-09T10:48:34.683Z,26.58
2018-07-09T10:50:39.245Z,26.49
2018-07-09T10:52:42.876Z,26.33
2018-07-09T10:54:46.618Z,26.38
2018-07-09T10:56:50.842Z,26.51
2018-07-09T10:58:54.554Z,26.54
2018-07-09T11:00:58.689Z,26.55
2018-07-09T11:03:02.271Z,26.59
2018-07-09T11:05:06.686Z,26.70
2018-07-09T11:07:11.015Z,26.79
2018-07-09T11:09:21.420Z,26.80
2018-07-09T11:11:25.182Z,26.72
2018-07-09T11:13:28.795Z,26.78
2018-07-09T11:15:32.539Z,26.81
2018-07-09T11:17:36.139Z,26.80
2018-07-09T11:19:39.672Z,26.80
2018-07-09T11:21:43.564Z,26.74
2018-07-09T11:23:47.181Z,26.73
2018-07-09T11:25:50.696Z,26.82
2018-07-09T11:27:54.261Z,26.88
2018-07-09T11:29:57.997Z,26.79
2018-07-09T11:32:01.741Z,26.86
2018-07-09T11:34:07.446Z,26.92
2018-07-09T11:36:13.816Z,27.02
2018-07-09T11:38:19.190Z,27.02
2018-07-09T11:40:24.314Z,27.01
2018-07-09T11:42:27.904Z,27.05
2018-07-09T11:44:31.631Z,27.12
2018-07-09T11:46:36.327Z,27.02
2018-07-09T11:48:40.478Z,27.14
2018-07-09T11:50:43.971Z,27.18
2018-07-09T11:52:48.061Z,27.19
2018-07-09T11:54:51.652Z,27.13
2018-07-09T11:56:55.274Z,27.11
2018-07-09T11:59:00.184Z,27.17
2018-07-09T12:01:04.269Z,27.16
2018-07-09T12:03:10.450Z,27.28
2018-07-09T12:05:17.967Z,27.35
2018-07-09T12:07:25.292Z,27.50
2018-07-09T12:09:29.056Z,27.65
2018-07-09T12:11:32.974Z,27.88
2018-07-09T12:13:36.650Z,28.37
2018-07-09T12:15:40.133Z,29.40
2018-07-09T12:17:44.338Z,30.70
2018-07-09T12:19:47.980Z,31.37
2018-07-09T12:21:51.818Z,32.17
2018-07-09T12:23:55.365Z,32.32
2018-07-09T12:25:59.091Z,32.85
2018-07-09T12:28:02.705Z,33.30
2018-07-09T12:30:07.694Z,33.35
2018-07-09T12:32:14.809Z,34.09
2018-07-09T12:34:20.328Z,34.64
2018-07-09T12:36:25.145Z,34.99
2018-07-09T12:38:29.369Z,34.77
2018-07-09T12:40:33.316Z,34.37
2018-07-09T12:42:37.101Z,34.99
2018-07-09T12:44:40.748Z,34.95
2018-07-09T12:46:44.521Z,35.47
2018-07-09T12:48:47.944Z,36.05
2018-07-09T12:50:51.428Z,36.23
2018-07-09T12:52:54.900Z,36.30
2018-07-09T12:54:58.739Z,36.68
2018-07-09T12:57:02.969Z,36.85
2018-07-09T12:59:08.900Z,37.20
2018-07-09T13:01:15.951Z,37.41
2018-07-09T13:03:21.033Z,37.22
2018-07-09T13:05:25.963Z,37.65
2018-07-09T13:07:30.419Z,37.77
2018-07-09T13:09:34.087Z,38.05
2018-07-09T13:11:37.660Z,38.25
2018-07-09T13:13:41.987Z,38.01
2018-07-09T13:15:45.458Z,38.17
2018-07-09T13:17:49.191Z,37.68
2018-07-09T13:19:53.120Z,38.20
2018-07-09T13:21:56.811Z,36.39
2018-07-09T13:26:13.371Z,37.95
2018-07-09T13:28:20.508Z,38.36
2018-07-09T13:30:26.361Z,38.57
2018-07-09T13:32:30.611Z,38.44
2018-07-09T13:34:34.529Z,38.50
2018-07-09T13:36:40.433Z,38.27
2018-07-09T13:38:44.168Z,38.48
2018-07-09T13:40:48.012Z,38.64
2018-07-09T13:42:52.902Z,37.24
2018-07-09T13:44:57.114Z,38.03
2018-07-09T13:47:00.862Z,37.28
2018-07-09T13:49:05.495Z,35.45
2018-07-09T13:51:12.608Z,33.42
2018-07-09T13:53:17.424Z,32.63
2018-07-09T13:55:22.674Z,33.94
2018-07-09T13:57:27.121Z,34.77
2018-07-09T13:59:31.058Z,34.56
2018-07-09T14:01:35.379Z,33.42
2018-07-09T14:03:38.934Z,31.99
2018-07-09T14:05:42.907Z,31.47
2018-07-09T14:07:46.616Z,31.34
2018-07-09T14:09:50.686Z,31.34
2018-07-09T14:11:54.205Z,31.22
2018-07-09T14:13:58.075Z,31.06
2018-07-09T14:16:02.997Z,31.72
2018-07-09T14:18:10.412Z,31.99
2018-07-09T14:20:28.096Z,31.29
2018-07-09T14:22:32.155Z,30.85
2018-07-09T14:24:35.861Z,31.21
2018-07-09T14:26:39.582Z,30.91
2018-07-09T14:28:45.031Z,30.73
2018-07-09T14:30:50.727Z,30.47
2018-07-09T14:32:54.897Z,30.39
2018-07-09T14:34:59.749Z,30.20
2018-07-09T14:37:06.094Z,30.24
2018-07-09T14:39:18.859Z,30.04
2018-07-09T14:41:26.000Z,29.97
2018-07-09T14:43:30.259Z,29.90
2018-07-09T14:45:35.434Z,29.66
2018-07-09T14:47:42.676Z,29.57
2018-07-09T14:49:47.843Z,29.55
2018-07-09T14:51:54.926Z,29.61
2018-07-09T14:53:59.760Z,29.64
2018-07-09T14:56:06.501Z,29.77
2018-07-09T14:58:12.776Z,29.75
2018-07-09T15:00:23.469Z,29.77
2018-07-09T15:02:29.388Z,29.72
2018-07-09T15:04:34.092Z,29.56
2018-07-09T15:06:38.586Z,29.65
2018-07-09T15:08:42.213Z,29.72
2018-07-09T15:10:47.659Z,29.58
2018-07-09T15:12:52.248Z,29.60
2018-07-09T15:14:55.946Z,29.51
2018-07-09T15:16:59.480Z,29.71
2018-07-09T15:19:03.078Z,29.66
2018-07-09T15:21:11.960Z,29.60
2018-07-09T15:23:22.944Z,29.64
2018-07-09T15:25:26.839Z,29.69
2018-07-09T15:27:30.647Z,29.57
2018-07-09T15:29:34.419Z,29.61
2018-07-09T15:31:48.148Z,29.60
2018-07-09T15:33:51.667Z,29.54
2018-07-09T15:35:55.245Z,29.55
2018-07-09T15:37:59.114Z,29.57
2018-07-09T15:40:03.260Z,29.55
2018-07-09T15:42:09.547Z,29.63
2018-07-09T15:44:16.506Z,29.71
2018-07-09T15:46:22.030Z,29.58
2018-07-09T15:48:25.690Z,29.63
2018-07-09T15:50:30.938Z,29.61
2018-07-09T15:52:34.541Z,29.60
2018-07-09T15:54:38.319Z,29.64
2018-07-09T15:56:42.990Z,29.58
2018-07-09T15:58:47.371Z,29.65
2018-07-09T16:00:51.079Z,29.79
2018-07-09T16:02:55.072Z,29.82
2018-07-09T16:04:58.575Z,29.71
2018-07-09T16:07:02.411Z,29.57
2018-07-09T16:09:07.081Z,29.65
2018-07-09T16:11:15.172Z,29.78
2018-07-09T16:13:22.456Z,29.95
2018-07-09T16:15:27.036Z,29.81
2018-07-09T16:17:31.340Z,29.78
2018-07-09T16:19:38.053Z,29.86
2018-07-09T16:21:42.341Z,29.85
2018-07-09T16:23:46.140Z,29.82
2018-07-09T16:25:50.409Z,29.87
2018-07-09T16:27:54.815Z,30.13
2018-07-09T16:29:58.584Z,30.37
2018-07-09T16:32:05.092Z,30.50
2018-07-09T16:34:13.813Z,30.64
2018-07-09T16:36:21.267Z,30.50
2018-07-09T16:38:25.508Z,30.36
2018-07-09T16:40:29.577Z,30.51
2018-07-09T16:42:33.187Z,30.51
2018-07-09T16:44:36.678Z,30.70
2018-07-09T16:46:40.835Z,30.63
2018-07-09T16:48:44.778Z,30.68
2018-07-09T16:50:51.516Z,30.67
2018-07-09T16:52:55.813Z,30.55
2018-07-09T16:54:59.895Z,30.68
2018-07-09T16:57:04.763Z,30.65
2018-07-09T16:59:12.042Z,30.62
2018-07-09T17:01:19.616Z,30.66
2018-07-09T17:03:25.466Z,30.76
2018-07-09T17:05:29.026Z,30.63
2018-07-09T17:07:32.625Z,30.39
2018-07-09T17:09:36.618Z,30.24
2018-07-09T17:11:40.748Z,30.18
2018-07-09T17:13:44.261Z,30.05
2018-07-09T17:15:47.926Z,29.97
2018-07-09T17:17:51.964Z,29.87
2018-07-09T17:19:55.732Z,29.90
2018-07-09T17:21:59.218Z,30.02
2018-07-09T17:24:03.277Z,29.93
2018-07-09T17:26:10.469Z,29.75
2018-07-09T17:28:19.419Z,29.72
2018-07-09T17:30:24.386Z,29.62
2018-07-09T17:32:27.930Z,29.51
2018-07-09T17:34:32.052Z,29.40
2018-07-09T17:36:37.828Z,29.28
2018-07-09T17:38:41.499Z,29.18
2018-07-09T17:40:46.115Z,29.12
2018-07-09T17:42:50.250Z,29.04
2018-07-09T17:44:53.810Z,28.95
2018-07-09T17:46:57.861Z,28.95
2018-07-09T17:49:02.423Z,28.94
2018-07-09T17:51:07.994Z,28.75
2018-07-09T17:53:15.027Z,28.68
2018-07-09T17:55:21.948Z,28.66
2018-07-09T17:57:27.733Z,28.71
2018-07-09T17:59:33.311Z,28.67
2018-07-09T18:01:41.168Z,28.46
2018-07-09T18:03:45.408Z,28.49
2018-07-09T18:05:50.256Z,28.41
2018-07-09T18:07:54.803Z,28.50
2018-07-09T18:10:00.330Z,28.31
2018-07-09T18:12:04.051Z,28.39
2018-07-09T18:14:11.743Z,28.35
2018-07-09T18:16:19.457Z,28.39
2018-07-09T18:18:26.246Z,28.36
2018-07-09T18:20:38.525Z,28.33
2018-07-09T18:22:48.873Z,28.19
2018-07-09T18:24:52.595Z,27.76
2018-07-09T18:26:57.490Z,27.61
2018-07-09T18:29:01.481Z,27.71
2018-07-09T18:31:05.937Z,27.85
2018-07-09T18:33:14.829Z,27.93
2018-07-09T18:35:21.655Z,27.87
2018-07-09T18:37:28.183Z,27.86
2018-07-09T18:39:32.572Z,27.83
2018-07-09T18:41:37.600Z,27.88
2018-07-09T18:43:45.853Z,27.73
2018-07-09T18:45:50.691Z,27.84
2018-07-09T18:48:04.973Z,27.74
2018-07-09T18:53:21.521Z,27.85
2018-07-09T18:55:26.776Z,27.66
2018-07-09T18:57:31.716Z,27.73
2018-07-09T18:59:39.026Z,27.87
2018-07-09T19:01:45.923Z,27.80
2018-07-09T19:03:51.460Z,27.69
2018-07-09T19:07:08.954Z,27.60
2018-07-09T19:09:16.327Z,27.71
2018-07-09T19:11:26.649Z,27.65
2018-07-09T19:13:32.334Z,27.69
2018-07-09T19:15:41.958Z,27.54
2018-07-09T19:18:31.002Z,27.57
2018-07-09T19:23:15.822Z,27.52
2018-07-09T19:25:20.692Z,27.48
2018-07-09T19:27:24.767Z,27.55
2018-07-09T19:29:31.139Z,27.37
2018-07-09T19:31:35.678Z,27.42
2018-07-09T19:33:38.851Z,27.33
2018-07-09T19:35:42.707Z,27.23
2018-07-09T19:37:45.789Z,27.10
2018-07-09T19:39:48.618Z,27.28
2018-07-09T19:41:52.094Z,27.04
2018-07-09T19:43:55.213Z,27.13
2018-07-09T19:45:58.532Z,27.23
2018-07-09T19:48:01.368Z,27.27
2018-07-09T19:50:04.454Z,27.42
2018-07-09T19:52:08.955Z,27.49
2018-07-09T19:54:13.695Z,27.40
2018-07-09T19:56:18.343Z,27.44
2018-07-09T19:58:25.755Z,27.35
2018-07-09T20:00:29.231Z,27.20
2018-07-09T20:02:31.784Z,27.25
2018-07-09T20:04:34.054Z,27.17
2018-07-09T20:06:36.682Z,27.17
2018-07-09T20:08:44.710Z,27.24
2018-07-09T20:10:52.372Z,27.28
2018-07-09T20:13:01.382Z,27.34
2018-07-09T20:15:11.893Z,27.32
2018-07-09T20:17:23.915Z,27.09
2018-07-09T20:19:26.578Z,27.10
2018-07-09T20:21:30.066Z,26.87
2018-07-09T20:23:33.337Z,27.09
2018-07-09T20:27:46.605Z,26.92
2018-07-09T20:29:50.155Z,26.89
2018-07-09T20:31:54.795Z,27.05
2018-07-09T20:33:57.770Z,27.11
2018-07-09T20:36:00.128Z,27.02
2018-07-09T20:38:02.712Z,27.07
2018-07-09T20:40:07.065Z,26.89
2018-07-09T20:42:12.336Z,27.00
2018-07-09T20:44:17.345Z,27.04
2018-07-09T20:46:20.149Z,26.99
2018-07-09T20:48:22.810Z,26.91
2018-07-09T20:50:25.550Z,26.95
2018-07-09T20:52:27.882Z,26.95
2018-07-09T20:54:32.946Z,26.90
2018-07-09T20:56:36.350Z,26.81
2018-07-09T20:58:39.235Z,26.96
2018-07-09T21:00:41.564Z,26.75
2018-07-09T21:02:45.459Z,26.91
2018-07-09T21:04:48.092Z,26.86
2018-07-09T21:06:50.580Z,26.92
2018-07-09T21:08:53.460Z,26.97
2018-07-09T21:10:55.762Z,26.98
2018-07-09T21:12:59.419Z,26.86
2018-07-09T21:15:03.162Z,26.97
2018-07-09T21:17:07.605Z,26.88
2018-07-09T21:19:13.049Z,26.78
2018-07-09T21:21:19.079Z,26.96
2018-07-09T21:23:23.735Z,26.97
2018-07-09T21:25:26.201Z,27.02
2018-07-09T21:27:28.947Z,27.09
2018-07-09T21:29:31.738Z,27.14
2018-07-09T21:31:34.103Z,27.13
2018-07-09T21:33:36.899Z,26.90
2018-07-09T21:35:39.386Z,27.09
2018-07-09T21:37:41.935Z,27.13
2018-07-09T21:39:44.367Z,27.07
2018-07-09T21:41:46.711Z,27.06
2018-07-09T21:43:49.064Z,27.02
2018-07-09T21:45:51.317Z,26.98
2018-07-09T21:47:59.216Z,27.08
2018-07-09T21:49:55.913Z,27.02
2018-07-09T21:51:58.111Z,27.00
2018-07-09T21:54:00.641Z,27.02
2018-07-09T21:56:02.976Z,26.90
2018-07-09T21:58:06.945Z,27.05
2018-07-09T22:00:11.466Z,27.04
2018-07-09T22:02:15.878Z,27.09
2018-07-09T22:04:19.885Z,27.00
2018-07-09T22:06:22.472Z,27.07
2018-07-09T22:08:24.729Z,27.10
2018-07-09T22:10:28.242Z,26.96
2018-07-09T22:12:30.710Z,27.05
2018-07-09T22:14:32.996Z,27.08
2018-07-09T22:16:35.234Z,27.04
2018-07-09T22:18:37.743Z,27.04
2018-07-09T22:20:40.105Z,27.00
2018-07-09T22:22:42.399Z,26.89
2018-07-09T22:24:45.161Z,26.99
2018-07-09T22:26:47.533Z,27.01
2018-07-09T22:28:49.752Z,26.94
2018-07-09T22:30:53.965Z,26.98
2018-07-09T22:32:57.495Z,26.98
2018-07-09T22:35:01.577Z,27.02
2018-07-09T22:37:06.327Z,27.03
2018-07-09T22:39:13.303Z,26.92
2018-07-09T22:41:18.820Z,26.95
2018-07-09T22:43:33.822Z,27.00
2018-07-09T22:45:39.485Z,27.03
2018-07-09T22:47:44.042Z,27.02
2018-07-09T22:49:48.008Z,26.96
2018-07-09T22:51:51.525Z,26.98
2018-07-09T22:53:55.210Z,26.91
2018-07-09T22:56:11.824Z,26.92
2018-07-09T22:58:18.495Z,26.85
2018-07-09T23:00:24.657Z,26.87
2018-07-09T23:02:29.297Z,26.91
2018-07-09T23:04:33.215Z,26.94
2018-07-09T23:06:36.651Z,26.96
2018-07-09T23:08:41.019Z,26.95
2018-07-09T23:11:24.830Z,26.99
2018-07-09T23:13:41.143Z,26.77
2018-07-09T23:15:55.945Z,26.84
2018-07-09T23:18:13.321Z,26.89
2018-07-09T23:21:14.005Z,26.93
2018-07-09T23:23:20.150Z,26.75
2018-07-09T23:25:24.193Z,26.85
2018-07-09T23:27:27.079Z,26.86
2018-07-09T23:29:29.358Z,26.84
2018-07-09T23:31:31.752Z,26.45
2018-07-09T23:33:34.533Z,26.42
2018-07-09T23:35:36.861Z,26.49
2018-07-09T23:37:39.168Z,26.00
2018-07-09T23:39:41.646Z,25.92
2018-07-09T23:41:44.208Z,25.94
2018-07-09T23:43:48.012Z,24.87
2018-07-09T23:45:51.543Z,25.32
2018-07-09T23:47:53.846Z,25.25
2018-07-09T23:49:56.172Z,25.12
2018-07-09T23:51:58.735Z,24.65
2018-07-09T23:54:01.255Z,24.55
2018-07-09T23:56:16.967Z,24.33
2018-07-09T23:58:33.188Z,25.24
